SOQ weather

Dominique Edward Osok Airport
Sorong-Papua Island, West Papua, Indonesia

Public forecast

Using degrees Celsius for public forecast. Weather courtesy of forecast.io.

METAR (pilot weather report)

Closest report is Frans Kaisiepo Airport, 290.0 nm (537.0 km) E. Retrieved 2019/05/20 00:00 UTC (10 minutes ago):

WABB 200000Z 20002KT 9999 SCT018 30/25 Q1011 NOSIG

TAF (pilot weather forecast)

Forecast is more than 12 hours old.

Closest forecast is Rendani Airport, 165.8 nm (307.1 km) E. Retrieved 2013/03/11 12:00 UTC (6 years ago):

TAF WASR 111100Z 1112/1212 00000KT 5000 HZ SCT015 TEMPO 1112/1118 4000 RA FEW013CB BECMG 1200/1202 30012KT 9999 TEMPO 1206/1210 6000 RA FEW013CB